Home > Products > Valid Products > TAF

000
FTUS43 KLOT 081457 AAA
TAFRFD
TAF AMD
KRFD 081457Z 0815/0912 29011KT 6SM -SHSN BKN017 OVC021
      TEMPO 0815/0817 2SM -SHSN OVC010
     FM082200 32015G22KT 3SM -SN BR OVC018
     FM090100 32015G22KT 2SM -SN BR OVC015
     FM090800 32014G20KT P6SM -SHSN OVC015=



000
FTUS43 KLOT 081457 AAA
TAFGYY
TAF AMD
KGYY 081457Z 0815/0912 29010KT P6SM -SHSN BKN012 OVC020
      TEMPO 0815/0816 2SM -SHSN OVC010
     FM081600 29010KT P6SM -SHSN OVC020
     FM090300 30012G20KT 2SM -SN BR OVC018
     FM091100 32015G22KT P6SM -SHSN OVC025=



000
FTUS43 KLOT 081457 AAA
TAFORD
TAF AMD
KORD 081457Z 0815/0918 29011KT P6SM -SHSN OVC020
     FM090200 32012G20KT 2SM -SN BR OVC018
     FM091000 32014G22KT P6SM -SHSN OVC025=



000
FTUS43 KLOT 081457 AAA
TAFDPA
TAF AMD
KDPA 081457Z 0815/0912 29011KT P6SM -SHSN OVC020
     FM090200 32012G20KT 2SM -SN BR OVC018
     FM091000 32014G22KT P6SM -SHSN OVC025=



000
FTUS43 KLOT 081457 AAA
TAFMDW
TAF AMD
KMDW 081457Z 0815/0912 29011KT P6SM -SHSN OVC020
     FM090200 32012G20KT 2SM -SN BR OVC018
     FM091000 32014G22KT P6SM -SHSN OVC025=



000
FTUS43 KLOT 081129
TAFGYY
TAF
KGYY 081129Z 0812/0912 24006KT P6SM SCT016
     FM081230 29010KT P6SM -SHSN BKN013 OVC020
      TEMPO 0813/0817 2SM -SHSN OVC010
     FM081700 29010KT P6SM -SHSN OVC020
     FM090300 30012G20KT 2SM -SN BR OVC018
     FM091100 32015G22KT P6SM -SHSN OVC025=



000
FTUS43 KLOT 081129
TAFRFD
TAF
KRFD 081129Z 0812/0912 29011KT 6SM -SHSN SCT017 OVC021
     FM082200 32015G22KT 3SM -SN BR OVC018
     FM090100 32015G22KT 2SM -SN BR OVC015
     FM090800 32014G20KT P6SM -SHSN OVC015=



000
FTUS43 KLOT 081129
TAFDPA
TAF
KDPA 081129Z 0812/0912 29009KT P6SM -SHSN BKN013 OVC019
      TEMPO 0812/0816 2SM -SHSN OVC009
     FM081600 29011KT P6SM -SHSN OVC020
     FM090200 32012G20KT 2SM -SN BR OVC018
     FM091000 32014G22KT P6SM -SHSN OVC025=



000
FTUS43 KLOT 081129
TAFMDW
TAF
KMDW 081129Z 0812/0912 29009KT P6SM -SHSN BKN013 OVC020
      TEMPO 0812/0816 2SM -SHSN OVC010
     FM081600 29011KT P6SM -SHSN OVC020
     FM090200 32012G20KT 2SM -SN BR OVC018
     FM091000 32014G22KT P6SM -SHSN OVC025=



000
FTUS43 KLOT 081129
TAFORD
TAF
KORD 081129Z 0812/0918 29009KT P6SM -SHSN BKN013 OVC020
      TEMPO 0812/0816 2SM -SHSN OVC010
     FM081600 29011KT P6SM -SHSN OVC020
     FM090200 32012G20KT 2SM -SN BR OVC018
     FM091000 32014G22KT P6SM -SHSN OVC025=



000
FTUS43 KLOT 080901 AAA
TAFGYY
TAF AMD
KGYY 080901Z 0809/0906 24010KT P6SM SCT030 SCT150
     FM081130 28010G15KT P6SM -SHSN OVC013
      TEMPO 0812/0816 2SM -SHSN OVC015
     FM081600 28010KT P6SM -SHSN OVC020
     FM090300 30012G22KT 2SM -SN BR OVC018=



000
FTUS43 KLOT 080901 AAB
TAFRFD
TAF AMD
KRFD 080901Z 0809/0906 27010KT 6SM -SHSN BKN009 BKN021
      TEMPO 0810/0814 2SM -SHSN OVC015
     FM081500 29011KT P6SM -SHSN OVC020
     FM082200 32012G20KT 3SM -SN BR OVC018=



000
FTUS43 KLOT 080901 AAA
TAFMDW
TAF AMD
KMDW 080901Z 0809/0906 25008KT P6SM SCT030 SCT150
     FM081100 29009KT P6SM -SHSN OVC013
      TEMPO 0812/0815 2SM -SHSN OVC015
     FM081500 29011KT P6SM -SHSN OVC020
     FM090200 32012G20KT 2SM -SN BR OVC018=



000
FTUS43 KLOT 080901 AAA
TAFDPA
TAF AMD
KDPA 080901Z 0809/0906 24008KT P6SM SCT030 SCT150
     FM081030 29009KT P6SM -SHSN OVC013
      TEMPO 0811/0815 2SM -SHSN OVC015
     FM081500 29011KT P6SM -SHSN OVC020
     FM090200 32012G20KT 2SM -SN BR OVC018=



000
FTUS43 KLOT 080901 AAA
TAFORD
TAF AMD
KORD 080901Z 0809/0912 25008KT P6SM SCT030 SCT150
     FM081030 29009KT P6SM -SHSN OVC013
      TEMPO 0811/0815 2SM -SHSN OVC015
     FM081500 29011KT P6SM -SHSN OVC020
     FM090200 32012G20KT 2SM -SN BR OVC018=



000
FTUS43 KLOT 080758 AAA
TAFRFD
TAF AMD
KRFD 080758Z 0808/0906 27010KT P6SM -SHSN BKN013 BKN070
      TEMPO 0810/0814 2SM -SHSN OVC015
     FM081500 29011KT P6SM -SHSN OVC020
     FM082200 32012G20KT 3SM -SN BR OVC018=



000
FTUS43 KLOT 080526
TAFORD
TAF
KORD 080526Z 0806/0912 25008KT P6SM SCT050 SCT150
     FM081000 29009KT P6SM -SHSN OVC025
      TEMPO 0811/0815 2SM -SHSN OVC015
     FM081500 29011KT P6SM -SHSN OVC020
     FM090200 32012G20KT 2SM -SN BR OVC018=



000
FTUS43 KLOT 080526
TAFMDW
TAF
KMDW 080526Z 0806/0906 25008KT P6SM SCT050 SCT150
     FM081000 29009KT P6SM -SHSN OVC025
      TEMPO 0811/0815 2SM -SHSN OVC015
     FM081500 29011KT P6SM -SHSN OVC020
     FM090200 32012G20KT 2SM -SN BR OVC018=



000
FTUS43 KLOT 080526
TAFRFD
TAF
KRFD 080526Z 0806/0906 25010KT P6SM SCT050 SCT150
     FM080900 29009KT P6SM -SHSN OVC025
      TEMPO 0809/0813 2SM -SHSN OVC015
     FM081500 29011KT P6SM -SHSN OVC020
     FM082200 32012G20KT 3SM -SN BR OVC018=



000
FTUS43 KLOT 080526
TAFDPA
TAF
KDPA 080526Z 0806/0906 24008KT P6SM SCT050 SCT150
     FM081000 29009KT P6SM -SHSN OVC025
      TEMPO 0811/0815 2SM -SHSN OVC015
     FM081500 29011KT P6SM -SHSN OVC020
     FM090200 32012G20KT 2SM -SN BR OVC018=



000
FTUS43 KLOT 080526
TAFORD
TAF
KORD 080526Z 0806/0912 25008KT P6SM SCT050 SCT150
     FM081000 29009KT P6SM -SHSN OVC025
      TEMPO 0811/0815 2SM -SHSN OVC015
     FM081500 29011KT P6SM -SHSN OVC020
     FM090200 32012G20KT 2SM -SN BR OVC018=



000
FTUS43 KLOT 080526
TAFMDW
TAF
KMDW 080526Z 0806/0906 25008KT P6SM SCT050 SCT150
     FM081000 29009KT P6SM -SHSN OVC025
      TEMPO 0811/0815 2SM -SHSN OVC015
     FM081500 29011KT P6SM -SHSN OVC020
     FM090200 32012G20KT 2SM -SN BR OVC018=



000
FTUS43 KLOT 080526
TAFGYY
TAF
KGYY 080526Z 0806/0906 24010KT P6SM SCT050 SCT150
     FM081100 28010G15KT P6SM -SHSN OVC025
      TEMPO 0812/0816 2SM -SHSN OVC015
     FM081600 28010KT P6SM -SHSN OVC020
     FM090300 30012G22KT 2SM -SN BR OVC018=



000
FTUS43 KLOT 080526
TAFDPA
TAF
KDPA 080526Z 0806/0906 24008KT P6SM SCT050 SCT150
     FM081000 29009KT P6SM -SHSN OVC025
      TEMPO 0811/0815 2SM -SHSN OVC015
     FM081500 29011KT P6SM -SHSN OVC020
     FM090200 32012G20KT 2SM -SN BR OVC018=



000
FTUS43 KLOT 080526
TAFRFD
TAF
KRFD 080526Z 0806/0906 25010KT P6SM SCT050 SCT150
     FM080900 29009KT P6SM -SHSN OVC025
      TEMPO 0809/0813 2SM -SHSN OVC015
     FM081500 29011KT P6SM -SHSN OVC020
     FM082200 32012G20KT 3SM -SN BR OVC018=



000
FTUS43 KLOT 080526
TAFGYY
TAF
KGYY 080526Z 0806/0906 24010KT P6SM SCT050 SCT150
     FM081100 28010G15KT P6SM -SHSN OVC025
      TEMPO 0812/0816 2SM -SHSN OVC015
     FM081600 28010KT P6SM -SHSN OVC020
     FM090300 30012G22KT 2SM -SN BR OVC018=



000
FTUS43 KLOT 080315 AAA
TAFORD
TAF AMD
KORD 080315Z 0803/0906 25008KT P6SM BKN200
     FM080900 29009KT P6SM -SHSN OVC025
      TEMPO 0810/0814 2SM -SHSN OVC015
     FM081500 29011KT P6SM -SHSN OVC020
     FM090000 30010KT 3SM -SN OVC018=



000
FTUS43 KLOT 080315 AAA
TAFMDW
TAF AMD
KMDW 080315Z 0803/0824 25008KT P6SM BKN200
     FM080900 29009KT P6SM -SHSN OVC025
      TEMPO 0810/0814 2SM -SHSN OVC015
     FM081500 29011KT P6SM -SHSN OVC020=



000
FTUS43 KLOT 080315 AAA
TAFDPA
TAF AMD
KDPA 080315Z 0803/0824 25010KT P6SM BKN200
     FM080900 29009KT P6SM -SHSN OVC025
      TEMPO 0810/0814 2SM -SHSN OVC015
     FM081500 29011KT P6SM -SHSN OVC020=



000
FTUS43 KLOT 080315 AAA
TAFORD
TAF AMD
KORD 080315Z 0803/0906 25008KT P6SM BKN200
     FM080900 29009KT P6SM -SHSN OVC025
      TEMPO 0810/0814 2SM -SHSN OVC015
     FM081500 29011KT P6SM -SHSN OVC020
     FM090000 30010KT 3SM -SN OVC018=



000
FTUS43 KLOT 080315 AAA
TAFDPA
TAF AMD
KDPA 080315Z 0803/0824 25010KT P6SM BKN200
     FM080900 29009KT P6SM -SHSN OVC025
      TEMPO 0810/0814 2SM -SHSN OVC015
     FM081500 29011KT P6SM -SHSN OVC020=



000
FTUS43 KLOT 080315 AAA
TAFMDW
TAF AMD
KMDW 080315Z 0803/0824 25008KT P6SM BKN200
     FM080900 29009KT P6SM -SHSN OVC025
      TEMPO 0810/0814 2SM -SHSN OVC015
     FM081500 29011KT P6SM -SHSN OVC020=



000
FTUS43 KLOT 072333
TAFDPA
TAF
KDPA 072333Z 0800/0824 25010KT P6SM BKN200
     FM081000 29009KT P6SM -SHSN OVC025
      TEMPO 0810/0814 2SM -SHSN OVC015
     FM081500 29011KT P6SM -SHSN OVC020=



000
FTUS43 KLOT 072333
TAFMDW
TAF
KMDW 072333Z 0800/0824 25010KT P6SM BKN200
     FM081000 29009KT P6SM -SHSN OVC025
      TEMPO 0810/0814 2SM -SHSN OVC015
     FM081500 29011KT P6SM -SHSN OVC020=



000
FTUS43 KLOT 072333
TAFGYY
TAF
KGYY 072333Z 0800/0824 24010KT P6SM BKN200
     FM081000 28010G15KT P6SM -SHSN OVC025
      TEMPO 0811/0815 2SM -SHSN OVC015
     FM081600 28010KT P6SM -SHSN OVC020=



000
FTUS43 KLOT 072333
TAFORD
TAF
KORD 072333Z 0800/0906 25010KT P6SM BKN200
     FM081000 29009KT P6SM -SHSN OVC025
      TEMPO 0810/0814 2SM -SHSN OVC015
     FM081500 29011KT P6SM -SHSN OVC020
     FM090000 30010KT 3SM -SN OVC018=



000
FTUS43 KLOT 072333
TAFGYY
TAF
KGYY 072333Z 0800/0824 24010KT P6SM BKN200
     FM081000 28010G15KT P6SM -SHSN OVC025
      TEMPO 0811/0815 2SM -SHSN OVC015
     FM081600 28010KT P6SM -SHSN OVC020=



000
FTUS43 KLOT 072333
TAFRFD
TAF
KRFD 072333Z 0800/0824 25010KT P6SM BKN200
     FM080800 29009KT P6SM -SHSN OVC025
      TEMPO 0808/0812 2SM -SHSN OVC015
     FM081500 29011KT P6SM -SHSN OVC020
     FM082200 30010KT 3SM -SN OVC018=



000
FTUS43 KLOT 072333
TAFDPA
TAF
KDPA 072333Z 0800/0824 25010KT P6SM BKN200
     FM081000 29009KT P6SM -SHSN OVC025
      TEMPO 0810/0814 2SM -SHSN OVC015
     FM081500 29011KT P6SM -SHSN OVC020=



000
FTUS43 KLOT 072333
TAFORD
TAF
KORD 072333Z 0800/0906 25010KT P6SM BKN200
     FM081000 29009KT P6SM -SHSN OVC025
      TEMPO 0810/0814 2SM -SHSN OVC015
     FM081500 29011KT P6SM -SHSN OVC020
     FM090000 30010KT 3SM -SN OVC018=



000
FTUS43 KLOT 072333
TAFMDW
TAF
KMDW 072333Z 0800/0824 25010KT P6SM BKN200
     FM081000 29009KT P6SM -SHSN OVC025
      TEMPO 0810/0814 2SM -SHSN OVC015
     FM081500 29011KT P6SM -SHSN OVC020=



000
FTUS43 KLOT 072333
TAFRFD
TAF
KRFD 072333Z 0800/0824 25010KT P6SM BKN200
     FM080800 29009KT P6SM -SHSN OVC025
      TEMPO 0808/0812 2SM -SHSN OVC015
     FM081500 29011KT P6SM -SHSN OVC020
     FM082200 30010KT 3SM -SN OVC018=



000
FTUS43 KLOT 072333
TAFGYY
TAF
KGYY 072333Z 0800/0824 24010KT P6SM BKN200
     FM081000 28010G15KT P6SM -SHSN OVC025
      TEMPO 0811/0815 2SM -SHSN OVC015
     FM081600 28010KT P6SM -SHSN OVC020=



000
FTUS43 KLOT 072108 AAA
TAFGYY
TAF AMD
KGYY 072108Z 0721/0818 22015G23KT P6SM SCT030 BKN100
     FM072300 25010KT P6SM BKN150
     FM080900 28009KT 6SM -SHSN OVC015
      TEMPO 0811/0814 1 1/2SM -SHSN OVC010
     FM081400 29012G19KT 6SM -SHSN OVC015 PROB30 0814/0817 1SM
      -SHSN=



000
FTUS43 KLOT 072108 AAA
TAFGYY
TAF AMD
KGYY 072108Z 0721/0818 22015G23KT P6SM SCT030 BKN100
     FM072300 25010KT P6SM BKN150
     FM080900 28009KT 6SM -SHSN OVC015
      TEMPO 0811/0814 1 1/2SM -SHSN OVC010
     FM081400 29012G19KT 6SM -SHSN OVC015 PROB30 0814/0817 1SM
      -SHSN=



000
FTUS43 KLOT 072108 AAA
TAFRFD
TAF AMD
KRFD 072108Z 0721/0818 25013G20KT P6SM SCT030 BKN250
     FM072300 25010KT P6SM BKN150
     FM080600 29012G19KT 6SM -SHSN OVC015
      TEMPO 0806/0809 2SM -SHSN OVC010
     FM081200 31013G20KT 6SM -SHSN OVC015 PROB30 0812/0818 1SM
      -SHSN=



000
FTUS43 KLOT 072108 AAA
TAFMDW
TAF AMD
KMDW 072108Z 0721/0818 24013G19KT P6SM FEW030 SCT100 BKN200
     FM072300 25010KT P6SM BKN150
     FM080900 28009KT 6SM -SHSN OVC015
      TEMPO 0810/0813 1 1/2SM -SHSN OVC010
     FM081300 29012G19KT 6SM -SHSN OVC015 PROB30 0813/0817 1SM
      -SHSN=



000
FTUS43 KLOT 072108 AAA
TAFDPA
TAF AMD
KDPA 072108Z 0721/0818 23012G18KT P6SM FEW100 BKN200
     FM072300 25010KT P6SM BKN150
     FM080900 28009KT 6SM -SHSN OVC015
      TEMPO 0809/0812 1 1/2SM -SHSN OVC010
     FM081200 29012G19KT 6SM -SHSN OVC015 PROB30 0812/0817 1SM
      -SHSN=



000
FTUS43 KLOT 072108 AAA
TAFORD
TAF AMD
KORD 072108Z 0721/0824 23013G19KT P6SM FEW100 BKN200
     FM072300 25010KT P6SM BKN150
     FM080900 28009KT 6SM -SHSN OVC015
      TEMPO 0810/0813 1 1/2SM -SHSN OVC010
     FM081300 29012G19KT 6SM -SHSN OVC015 PROB30 0813/0817 1SM -SHSN
     FM081800 31013G19KT 6SM -SHSN OVC020=



000
FTUS43 KLOT 072108 AAA
TAFDPA
TAF AMD
KDPA 072108Z 0721/0818 23012G18KT P6SM FEW100 BKN200
     FM072300 25010KT P6SM BKN150
     FM080900 28009KT 6SM -SHSN OVC015
      TEMPO 0809/0812 1 1/2SM -SHSN OVC010
     FM081200 29012G19KT 6SM -SHSN OVC015 PROB30 0812/0817 1SM
      -SHSN=



000
FTUS43 KLOT 072108 AAA
TAFMDW
TAF AMD
KMDW 072108Z 0721/0818 24013G19KT P6SM FEW030 SCT100 BKN200
     FM072300 25010KT P6SM BKN150
     FM080900 28009KT 6SM -SHSN OVC015
      TEMPO 0810/0813 1 1/2SM -SHSN OVC010
     FM081300 29012G19KT 6SM -SHSN OVC015 PROB30 0813/0817 1SM
      -SHSN=



000
FTUS43 KLOT 072108 AAA
TAFGYY
TAF AMD
KGYY 072108Z 0721/0818 22015G23KT P6SM SCT030 BKN100
     FM072300 25010KT P6SM BKN150
     FM080900 28009KT 6SM -SHSN OVC015
      TEMPO 0811/0814 1 1/2SM -SHSN OVC010
     FM081400 29012G19KT 6SM -SHSN OVC015 PROB30 0814/0817 1SM
      -SHSN=



000
FTUS43 KLOT 072108 AAA
TAFORD
TAF AMD
KORD 072108Z 0721/0824 23013G19KT P6SM FEW100 BKN200
     FM072300 25010KT P6SM BKN150
     FM080900 28009KT 6SM -SHSN OVC015
      TEMPO 0810/0813 1 1/2SM -SHSN OVC010
     FM081300 29012G19KT 6SM -SHSN OVC015 PROB30 0813/0817 1SM -SHSN
     FM081800 31013G19KT 6SM -SHSN OVC020=



000
FTUS43 KLOT 072108 AAA
TAFRFD
TAF AMD
KRFD 072108Z 0721/0818 25013G20KT P6SM SCT030 BKN250
     FM072300 25010KT P6SM BKN150
     FM080600 29012G19KT 6SM -SHSN OVC015
      TEMPO 0806/0809 2SM -SHSN OVC010
     FM081200 31013G20KT 6SM -SHSN OVC015 PROB30 0812/0818 1SM
      -SHSN=



000
FTUS43 KLOT 071744
TAFORD
TAF
KORD 071744Z 0718/0824 24015G22KT P6SM SCT100 BKN200
     FM072300 25010KT P6SM BKN150
     FM080900 28009KT 6SM -SHSN OVC015
      TEMPO 0810/0813 1 1/2SM -SHSN OVC010
     FM081300 29012G19KT 6SM -SHSN OVC015 PROB30 0813/0817 1SM -SHSN
     FM081800 31013G19KT 6SM -SHSN OVC020=



000
FTUS43 KLOT 071744
TAFMDW
TAF
KMDW 071744Z 0718/0818 24015G22KT P6SM SCT100 BKN200
     FM072300 25010KT P6SM BKN150
     FM080900 28009KT 6SM -SHSN OVC015
      TEMPO 0810/0813 1 1/2SM -SHSN OVC010
     FM081300 29012G19KT 6SM -SHSN OVC015 PROB30 0813/0817 1SM
      -SHSN=



000
FTUS43 KLOT 071744
TAFRFD
TAF
KRFD 071744Z 0718/0818 23013G20KT P6SM SCT100 BKN250
     FM072300 25010KT P6SM BKN150
     FM080600 29012G19KT 6SM -SHSN OVC015
      TEMPO 0806/0809 2SM -SHSN OVC010
     FM081200 31013G20KT 6SM -SHSN OVC015 PROB30 0812/0818 1SM
      -SHSN=



000
FTUS43 KLOT 071744
TAFGYY
TAF
KGYY 071744Z 0718/0818 22016G23KT P6SM SCT100 BKN200
     FM072300 25010KT P6SM BKN150
     FM080900 28009KT 6SM -SHSN OVC015
      TEMPO 0811/0814 1 1/2SM -SHSN OVC010
     FM081400 29012G19KT 6SM -SHSN OVC015 PROB30 0814/0817 1SM
      -SHSN=



000
FTUS43 KLOT 071744
TAFDPA
TAF
KDPA 071744Z 0718/0818 23015G22KT P6SM SCT100 BKN200
     FM072300 25010KT P6SM BKN150
     FM080900 28009KT 6SM -SHSN OVC015
      TEMPO 0809/0812 1 1/2SM -SHSN OVC010
     FM081200 29012G19KT 6SM -SHSN OVC015 PROB30 0812/0817 1SM
      -SHSN=



000
FTUS43 KLOT 071744
TAFGYY
TAF
KGYY 071744Z 0718/0818 22016G23KT P6SM SCT100 BKN200
     FM072300 25010KT P6SM BKN150
     FM080900 28009KT 6SM -SHSN OVC015
      TEMPO 0811/0814 1 1/2SM -SHSN OVC010
     FM081400 29012G19KT 6SM -SHSN OVC015 PROB30 0814/0817 1SM
      -SHSN=



000
FTUS43 KLOT 071744
TAFGYY
TAF
KGYY 071744Z 0718/0818 22016G23KT P6SM SCT100 BKN200
     FM072300 25010KT P6SM BKN150
     FM080900 28009KT 6SM -SHSN OVC015
      TEMPO 0811/0814 1 1/2SM -SHSN OVC010
     FM081400 29012G19KT 6SM -SHSN OVC015 PROB30 0814/0817 1SM
      -SHSN=



000
FTUS43 KLOT 071744
TAFRFD
TAF
KRFD 071744Z 0718/0818 23013G20KT P6SM SCT100 BKN250
     FM072300 25010KT P6SM BKN150
     FM080600 29012G19KT 6SM -SHSN OVC015
      TEMPO 0806/0809 2SM -SHSN OVC010
     FM081200 31013G20KT 6SM -SHSN OVC015 PROB30 0812/0818 1SM
      -SHSN=



000
FTUS43 KLOT 071744
TAFORD
TAF
KORD 071744Z 0718/0824 24015G22KT P6SM SCT100 BKN200
     FM072300 25010KT P6SM BKN150
     FM080900 28009KT 6SM -SHSN OVC015
      TEMPO 0810/0813 1 1/2SM -SHSN OVC010
     FM081300 29012G19KT 6SM -SHSN OVC015 PROB30 0813/0817 1SM -SHSN
     FM081800 31013G19KT 6SM -SHSN OVC020=



000
FTUS43 KLOT 071744
TAFDPA
TAF
KDPA 071744Z 0718/0818 23015G22KT P6SM SCT100 BKN200
     FM072300 25010KT P6SM BKN150
     FM080900 28009KT 6SM -SHSN OVC015
      TEMPO 0809/0812 1 1/2SM -SHSN OVC010
     FM081200 29012G19KT 6SM -SHSN OVC015 PROB30 0812/0817 1SM
      -SHSN=



000
FTUS43 KLOT 071744
TAFMDW
TAF
KMDW 071744Z 0718/0818 24015G22KT P6SM SCT100 BKN200
     FM072300 25010KT P6SM BKN150
     FM080900 28009KT 6SM -SHSN OVC015
      TEMPO 0810/0813 1 1/2SM -SHSN OVC010
     FM081300 29012G19KT 6SM -SHSN OVC015 PROB30 0813/0817 1SM
      -SHSN=



000
FTUS43 KLOT 071501 AAA
TAFGYY
TAF AMD
KGYY 071501Z 0715/0812 22014G21KT P6SM SCT100 BKN200
     FM080000 25010KT P6SM BKN080
     FM080800 28011KT P6SM OVC020
      TEMPO 0810/0812 1 1/2SM -SHSN OVC010=



000
FTUS43 KLOT 071501 AAA
TAFMDW
TAF AMD
KMDW 071501Z 0715/0812 23014G21KT P6SM SCT100 BKN200
     FM072300 25010KT P6SM BKN080
     FM080800 28011KT P6SM OVC020
      TEMPO 0809/0812 1 1/2SM -SHSN OVC010=



000
FTUS43 KLOT 071501 AAA
TAFGYY
TAF AMD
KGYY 071501Z 0715/0812 22014G21KT P6SM SCT100 BKN200
     FM080000 25010KT P6SM BKN080
     FM080800 28011KT P6SM OVC020
      TEMPO 0810/0812 1 1/2SM -SHSN OVC010=



000
FTUS43 KLOT 071501 AAA
TAFORD
TAF AMD
KORD 071501Z 0715/0818 23014G21KT P6SM SCT100 BKN200
     FM072300 25010KT P6SM BKN080
     FM080700 28011KT P6SM OVC020
      TEMPO 0809/0813 1 1/2SM -SHSN OVC010
     FM081300 30012G19KT P6SM VCSH OVC020 PROB30 0813/0818 1SM
      -SHSN=



000
FTUS43 KLOT 071501 AAA
TAFMDW
TAF AMD
KMDW 071501Z 0715/0812 23014G21KT P6SM SCT100 BKN200
     FM072300 25010KT P6SM BKN080
     FM080800 28011KT P6SM OVC020
      TEMPO 0809/0812 1 1/2SM -SHSN OVC010=



000
FTUS43 KLOT 071501 AAA
TAFGYY
TAF AMD
KGYY 071501Z 0715/0812 22014G21KT P6SM SCT100 BKN200
     FM080000 25010KT P6SM BKN080
     FM080800 28011KT P6SM OVC020
      TEMPO 0810/0812 1 1/2SM -SHSN OVC010=



000
FTUS43 KLOT 071501 AAA
TAFDPA
TAF AMD
KDPA 071501Z 0715/0812 23014G21KT P6SM SCT100 BKN200
     FM072300 25010KT P6SM BKN080
     FM080700 28011KT P6SM OVC020
      TEMPO 0808/0812 1 1/2SM -SHSN OVC010=



000
FTUS43 KLOT 071501 AAA
TAFORD
TAF AMD
KORD 071501Z 0715/0818 23014G21KT P6SM SCT100 BKN200
     FM072300 25010KT P6SM BKN080
     FM080700 28011KT P6SM OVC020
      TEMPO 0809/0813 1 1/2SM -SHSN OVC010
     FM081300 30012G19KT P6SM VCSH OVC020 PROB30 0813/0818 1SM
      -SHSN=



000
FTUS43 KLOT 071501 AAA
TAFRFD
TAF AMD
KRFD 071501Z 0715/0812 23013G20KT P6SM SCT100 BKN150
     FM072300 25010KT P6SM BKN060
     FM080500 29012G19KT P6SM OVC020
      TEMPO 0806/0810 1 1/2SM -SHSN OVC010=



000
FTUS43 KLOT 071501 AAA
TAFRFD
TAF AMD
KRFD 071501Z 0715/0812 23013G20KT P6SM SCT100 BKN150
     FM072300 25010KT P6SM BKN060
     FM080500 29012G19KT P6SM OVC020
      TEMPO 0806/0810 1 1/2SM -SHSN OVC010=



000
FTUS43 KLOT 071501 AAA
TAFDPA
TAF AMD
KDPA 071501Z 0715/0812 23014G21KT P6SM SCT100 BKN200
     FM072300 25010KT P6SM BKN080
     FM080700 28011KT P6SM OVC020
      TEMPO 0808/0812 1 1/2SM -SHSN OVC010=



000
FTUS43 KLOT 071140
TAFMDW
TAF
KMDW 071140Z 0712/0812 21013G21KT P6SM OVC100
     FM071400 24015G23KT P6SM BKN150
     FM072300 25010KT P6SM BKN080
     FM080800 28011KT P6SM OVC020
      TEMPO 0809/0812 1 1/2SM -SHSN OVC010=



000
FTUS43 KLOT 071140
TAFDPA
TAF
KDPA 071140Z 0712/0812 22012G20KT P6SM OVC100
     FM071400 24014G22KT P6SM BKN150
     FM072300 25010KT P6SM BKN080
     FM080700 28011KT P6SM OVC020
      TEMPO 0808/0812 1 1/2SM -SHSN OVC010=



000
FTUS43 KLOT 071140
TAFRFD
TAF
KRFD 071140Z 0712/0812 20013KT P6SM OVC100 WS010/24050KT
     FM071300 23014G21KT P6SM BKN150
     FM072300 25010KT P6SM BKN060
     FM080500 29012G19KT P6SM OVC020
      TEMPO 0806/0810 1 1/2SM -SHSN OVC010=



000
FTUS43 KLOT 071140
TAFORD
TAF
KORD 071140Z 0712/0818 22013G20KT P6SM OVC100
     FM071400 24015G22KT P6SM BKN150
     FM072300 25010KT P6SM BKN080
     FM080700 28011KT P6SM OVC020
      TEMPO 0809/0813 1 1/2SM -SHSN OVC010
     FM081300 30012G19KT P6SM VCSH OVC020 PROB30 0813/0818 1SM
      -SHSN=



000
FTUS43 KLOT 071140
TAFGYY
TAF
KGYY 071140Z 0712/0812 20013G21KT P6SM OVC120
     FM071400 23015G25KT P6SM BKN150
     FM080000 25010KT P6SM BKN080
     FM080800 28011KT P6SM OVC020
      TEMPO 0810/0812 1 1/2SM -SHSN OVC010=



000
FTUS43 KLOT 071140
TAFGYY
TAF
KGYY 071140Z 0712/0812 20013G21KT P6SM OVC120
     FM071400 23015G25KT P6SM BKN150
     FM080000 25010KT P6SM BKN080
     FM080800 28011KT P6SM OVC020
      TEMPO 0810/0812 1 1/2SM -SHSN OVC010=



000
FTUS43 KLOT 070907 AAA
TAFGYY
TAF AMD
KGYY 070907Z 0709/0806 19007KT P6SM OVC120
     FM071230 22014G21KT P6SM OVC100
     FM071500 22015G25KT P6SM BKN180
     FM072300 24010KT P6SM BKN040=



000
FTUS43 KLOT 070907 AAA
TAFRFD
TAF AMD
KRFD 070907Z 0709/0806 20011KT P6SM OVC100 WS010/23050KT
     FM071300 23013G19KT P6SM OVC100
     FM071700 25013G20KT P6SM BKN180
     FM072300 25010KT P6SM BKN040=



000
FTUS43 KLOT 070907 AAA
TAFORD
TAF AMD
KORD 070907Z 0709/0812 20010KT P6SM OVC120
     FM071200 22012G20KT P6SM OVC100
     FM071500 24015G22KT P6SM BKN180
     FM072300 25010KT P6SM BKN040
      TEMPO 0808/0812 1SM -SHSN BKN030=



000
FTUS43 KLOT 070907 AAA
TAFMDW
TAF AMD
KMDW 070907Z 0709/0806 20009KT P6SM OVC120
     FM071200 22014G21KT P6SM OVC100
     FM071500 24014G22KT P6SM BKN180
     FM072300 25010KT P6SM BKN040=



000
FTUS43 KLOT 070907 AAA
TAFDPA
TAF AMD
KDPA 070907Z 0709/0806 19012KT P6SM OVC100
     FM071200 22012G19KT P6SM OVC100
     FM071500 24014G22KT P6SM BKN180
     FM072300 24009KT P6SM BKN040=



000
FTUS43 KLOT 070907 AAA
TAFGYY
TAF AMD
KGYY 070907Z 0709/0806 19007KT P6SM OVC120
     FM071230 22014G21KT P6SM OVC100
     FM071500 22015G25KT P6SM BKN180
     FM072300 24010KT P6SM BKN040=



000
FTUS43 KLOT 070537
TAFDPA
TAF
KDPA 070537Z 0706/0806 19005KT P6SM SCT200
     FM070800 19012KT P6SM OVC100
     FM071600 24014G22KT P6SM BKN180
     FM072300 24009KT P6SM BKN040=



000
FTUS43 KLOT 070537
TAFGYY
TAF
KGYY 070537Z 0706/0806 19007KT P6SM BKN150
     FM071500 22015G25KT P6SM BKN180
     FM072300 24010KT P6SM BKN040=



000
FTUS43 KLOT 070537
TAFDPA
TAF
KDPA 070537Z 0706/0806 19005KT P6SM SCT200
     FM070800 19012KT P6SM OVC100
     FM071600 24014G22KT P6SM BKN180
     FM072300 24009KT P6SM BKN040=



000
FTUS43 KLOT 070537
TAFRFD
TAF
KRFD 070537Z 0706/0806 18005KT 6SM BR BKN150
     FM071000 20010KT P6SM OVC100
     FM071700 25013G20KT P6SM BKN180
     FM072300 25010KT P6SM BKN040=



000
FTUS43 KLOT 070537
TAFORD
TAF
KORD 070537Z 0706/0812 20007KT P6SM BKN150
     FM071100 21012G18KT P6SM OVC100
     FM071600 24014G22KT P6SM BKN180
     FM072300 25010KT P6SM BKN040
      TEMPO 0808/0812 1SM -SHSN BKN030=



000
FTUS43 KLOT 070537
TAFMDW
TAF
KMDW 070537Z 0706/0806 20007KT P6SM BKN150
     FM071100 22014G22KT P6SM BKN180
     FM071600 24014G22KT P6SM BKN180
     FM072300 25010KT P6SM BKN040=



000
FTUS43 KLOT 070537
TAFORD
TAF
KORD 070537Z 0706/0812 20007KT P6SM BKN150
     FM071100 21012G18KT P6SM OVC100
     FM071600 24014G22KT P6SM BKN180
     FM072300 25010KT P6SM BKN040
      TEMPO 0808/0812 1SM -SHSN BKN030=



000
FTUS43 KLOT 070537
TAFGYY
TAF
KGYY 070537Z 0706/0806 19007KT P6SM BKN150
     FM071500 22015G25KT P6SM BKN180
     FM072300 24010KT P6SM BKN040=



000
FTUS43 KLOT 070537
TAFMDW
TAF
KMDW 070537Z 0706/0806 20007KT P6SM BKN150
     FM071100 22014G22KT P6SM BKN180
     FM071600 24014G22KT P6SM BKN180
     FM072300 25010KT P6SM BKN040=



000
FTUS43 KLOT 070537
TAFGYY
TAF
KGYY 070537Z 0706/0806 19007KT P6SM BKN150
     FM071500 22015G25KT P6SM BKN180
     FM072300 24010KT P6SM BKN040=



000
FTUS43 KLOT 070537
TAFRFD
TAF
KRFD 070537Z 0706/0806 18005KT 6SM BR BKN150
     FM071000 20010KT P6SM OVC100
     FM071700 25013G20KT P6SM BKN180
     FM072300 25010KT P6SM BKN040=



000
FTUS43 KLOT 070344 AAA
TAFORD
TAF AMD
KORD 070344Z 0704/0806 20007KT P6SM SCT200
     FM070800 21012G18KT P6SM OVC100
     FM071600 24014G22KT P6SM BKN180
     FM072300 25010KT P6SM BKN040=



000
FTUS43 KLOT 070344 AAA
TAFRFD
TAF AMD
KRFD 070344Z 0704/0724 22005KT P6SM FEW025 SCT200
     FM070800 20010KT P6SM OVC100
     FM071700 25015G23KT P6SM BKN180=



000
FTUS43 KLOT 070344 AAA
TAFDPA
TAF AMD
KDPA 070344Z 0704/0724 20006KT P6SM SCT200
     FM070800 20012KT P6SM OVC100
     FM071600 24014G22KT P6SM BKN180=



000
FTUS43 KLOT 070344 AAA
TAFGYY
TAF AMD
KGYY 070344Z 0704/0724 19005KT P6SM SCT200
     FM070800 20012KT P6SM OVC100
     FM071600 23015G25KT P6SM BKN180=



000
FTUS43 KLOT 070344 AAA
TAFMDW
TAF AMD
KMDW 070344Z 0704/0724 20007KT P6SM SCT200
     FM070800 21012G18KT P6SM OVC100
     FM071600 24014G22KT P6SM BKN180=



000
FTUS43 KLOT 062336
TAFRFD
TAF
KRFD 062336Z 0700/0724 22005KT P6SM FEW025 SCT200
     FM070800 20010KT P6SM OVC100
     FM071700 25015G23KT P6SM BKN180=



000
FTUS43 KLOT 062336
TAFGYY
TAF
KGYY 062336Z 0700/0724 20006KT P6SM SCT200
     FM070800 20012KT P6SM OVC100
     FM071600 23015G25KT P6SM BKN180=



000
FTUS43 KLOT 062336
TAFGYY
TAF
KGYY 062336Z 0700/0724 20006KT P6SM SCT200
     FM070800 20012KT P6SM OVC100
     FM071600 23015G25KT P6SM BKN180=



000
FTUS43 KLOT 062336
TAFORD
TAF
KORD 062336Z 0700/0806 21007KT P6SM SCT200
     FM070800 21012G18KT P6SM OVC100
     FM071600 24014G22KT P6SM BKN180
     FM072300 25010KT P6SM BKN040=



000
FTUS43 KLOT 062336
TAFORD
TAF
KORD 062336Z 0700/0806 21007KT P6SM SCT200
     FM070800 21012G18KT P6SM OVC100
     FM071600 24014G22KT P6SM BKN180
     FM072300 25010KT P6SM BKN040=



000
FTUS43 KLOT 062336
TAFRFD
TAF
KRFD 062336Z 0700/0724 22005KT P6SM FEW025 SCT200
     FM070800 20010KT P6SM OVC100
     FM071700 25015G23KT P6SM BKN180=



000
FTUS43 KLOT 062336
TAFGYY
TAF
KGYY 062336Z 0700/0724 20006KT P6SM SCT200
     FM070800 20012KT P6SM OVC100
     FM071600 23015G25KT P6SM BKN180=



000
FTUS43 KLOT 062336
TAFMDW
TAF
KMDW 062336Z 0700/0724 21007KT P6SM SCT200
     FM070800 21012G18KT P6SM OVC100
     FM071600 24014G22KT P6SM BKN180=



000
FTUS43 KLOT 062336
TAFDPA
TAF
KDPA 062336Z 0700/0724 20006KT P6SM SCT200
     FM070800 20012KT P6SM OVC100
     FM071600 24014G22KT P6SM BKN180=



000
FTUS43 KLOT 062336
TAFMDW
TAF
KMDW 062336Z 0700/0724 21007KT P6SM SCT200
     FM070800 21012G18KT P6SM OVC100
     FM071600 24014G22KT P6SM BKN180=



000
FTUS43 KLOT 062336
TAFDPA
TAF
KDPA 062336Z 0700/0724 20006KT P6SM SCT200
     FM070800 20012KT P6SM OVC100
     FM071600 24014G22KT P6SM BKN180=



000
FTUS43 KLOT 062059 AAB
TAFMDW
TAF AMD
KMDW 062059Z 0621/0718 24012KT P6SM FEW030
     FM070000 21007KT P6SM FEW030 SCT200
     FM070700 22010KT P6SM OVC080
     FM071300 23013KT P6SM SCT100 BKN200
     FM071600 24013G21KT P6SM SCT100 BKN180=



000
FTUS43 KLOT 062059 AAB
TAFRFD
TAF AMD
KRFD 062059Z 0621/0718 24010KT P6SM FEW025 SCT250
     FM070000 22006KT P6SM FEW025 SCT200
     FM070600 21010KT P6SM OVC070
     FM071300 23012G20KT P6SM SCT100 BKN200=



000
FTUS43 KLOT 062059 AAB
TAFDPA
TAF AMD
KDPA 062059Z 0621/0718 25012KT P6SM SCT025
     FM070000 21007KT P6SM FEW025 SCT200
     FM070700 22009KT P6SM OVC080
     FM071300 23013KT P6SM SCT100 BKN200
     FM071600 24013G21KT P6SM SCT100 BKN180=



000
FTUS43 KLOT 062059 AAB
TAFORD
TAF AMD
KORD 062059Z 0621/0724 24013KT P6SM FEW030
     FM070000 21007KT P6SM FEW030 SCT200
     FM070700 22010KT P6SM OVC080
     FM071300 23013KT P6SM SCT100 BKN200
     FM071600 24013G21KT P6SM SCT100 BKN180=



000
FTUS43 KLOT 062059 AAA
TAFGYY
TAF AMD
KGYY 062059Z 0621/0718 23013KT P6SM SCT030
     FM070000 21006KT P6SM FEW030 SCT200
     FM070700 22009KT P6SM OVC080
     FM071300 23013KT P6SM SCT100 BKN200
     FM071600 24014G23KT P6SM SCT100 BKN180=



000
FTUS43 KLOT 062059 AAB
TAFRFD
TAF AMD
KRFD 062059Z 0621/0718 24010KT P6SM FEW025 SCT250
     FM070000 22006KT P6SM FEW025 SCT200
     FM070600 21010KT P6SM OVC070
     FM071300 23012G20KT P6SM SCT100 BKN200=



000
FTUS43 KLOT 062059 AAB
TAFMDW
TAF AMD
KMDW 062059Z 0621/0718 24012KT P6SM FEW030
     FM070000 21007KT P6SM FEW030 SCT200
     FM070700 22010KT P6SM OVC080
     FM071300 23013KT P6SM SCT100 BKN200
     FM071600 24013G21KT P6SM SCT100 BKN180=



000
FTUS43 KLOT 062059 AAA
TAFGYY
TAF AMD
KGYY 062059Z 0621/0718 23013KT P6SM SCT030
     FM070000 21006KT P6SM FEW030 SCT200
     FM070700 22009KT P6SM OVC080
     FM071300 23013KT P6SM SCT100 BKN200
     FM071600 24014G23KT P6SM SCT100 BKN180=



000
FTUS43 KLOT 062059 AAB
TAFDPA
TAF AMD
KDPA 062059Z 0621/0718 25012KT P6SM SCT025
     FM070000 21007KT P6SM FEW025 SCT200
     FM070700 22009KT P6SM OVC080
     FM071300 23013KT P6SM SCT100 BKN200
     FM071600 24013G21KT P6SM SCT100 BKN180=



000
FTUS43 KLOT 062059 AAB
TAFORD
TAF AMD
KORD 062059Z 0621/0724 24013KT P6SM FEW030
     FM070000 21007KT P6SM FEW030 SCT200
     FM070700 22010KT P6SM OVC080
     FM071300 23013KT P6SM SCT100 BKN200
     FM071600 24013G21KT P6SM SCT100 BKN180=



000
FTUS43 KLOT 061905 AAA
TAFORD
TAF AMD
KORD 061905Z 0619/0724 24012KT P6SM SCT025
     FM070000 21007KT P6SM FEW025 BKN200
     FM070700 22010KT P6SM OVC080
     FM071300 23013KT P6SM SCT100 BKN200
     FM071600 24013G21KT P6SM SCT100 BKN180=



000
FTUS43 KLOT 061905 AAA
TAFMDW
TAF AMD
KMDW 061905Z 0619/0718 24012KT P6SM SCT025
     FM070000 21007KT P6SM FEW025 BKN200
     FM070700 22010KT P6SM OVC080
     FM071300 23013KT P6SM SCT100 BKN200
     FM071600 24013G21KT P6SM SCT100 BKN180=



000
FTUS43 KLOT 061830 AAA
TAFDPA
TAF AMD
KDPA 061830Z 0619/0718 25011KT P6SM SCT020
     FM070000 21007KT P6SM FEW015 BKN200
     FM070700 22009KT P6SM OVC080
     FM071300 23013KT P6SM SCT100 BKN200
     FM071600 24013G21KT P6SM SCT100 BKN180=



000
FTUS43 KLOT 061830 AAA
TAFRFD
TAF AMD
KRFD 061830Z 0619/0718 25010KT P6SM SCT020
     FM070000 22006KT P6SM FEW020 BKN200
     FM070600 21010KT P6SM OVC070
     FM071300 23012G20KT P6SM SCT100 BKN200=



000
FTUS43 KLOT 061830 AAA
TAFDPA
TAF AMD
KDPA 061830Z 0619/0718 25011KT P6SM SCT020
     FM070000 21007KT P6SM FEW015 BKN200
     FM070700 22009KT P6SM OVC080
     FM071300 23013KT P6SM SCT100 BKN200
     FM071600 24013G21KT P6SM SCT100 BKN180=



000
FTUS43 KLOT 061830 AAA
TAFRFD
TAF AMD
KRFD 061830Z 0619/0718 25010KT P6SM SCT020
     FM070000 22006KT P6SM FEW020 BKN200
     FM070600 21010KT P6SM OVC070
     FM071300 23012G20KT P6SM SCT100 BKN200=



000
FTUS43 KLOT 061731
TAFDPA
TAF
KDPA 061731Z 0618/0718 24010KT P6SM OVC020
     FM062100 24013KT P6SM SCT015
     FM070000 21007KT P6SM FEW015 BKN200
     FM070700 22009KT P6SM OVC080
     FM071300 23013KT P6SM SCT100 BKN200
     FM071600 24013G21KT P6SM SCT100 BKN180=



000
FTUS43 KLOT 061731
TAFGYY
TAF
KGYY 061731Z 0618/0718 23011KT P6SM SCT025
     FM070000 21006KT P6SM FEW020 BKN200
     FM070700 22009KT P6SM OVC080
     FM071300 23013KT P6SM SCT100 BKN200
     FM071600 24014G23KT P6SM SCT100 BKN180=



000
FTUS43 KLOT 061731
TAFMDW
TAF
KMDW 061731Z 0618/0718 24011KT P6SM BKN020
     FM062100 24013KT P6SM SCT015
     FM070000 21007KT P6SM FEW015 BKN200
     FM070700 22010KT P6SM OVC080
     FM071300 23013KT P6SM SCT100 BKN200
     FM071600 24013G21KT P6SM SCT100 BKN180=



000
FTUS43 KLOT 061731
TAFRFD
TAF
KRFD 061731Z 0618/0718 23009KT P6SM BKN015
     FM062000 24010KT P6SM SCT015
     FM070000 22006KT P6SM FEW015 BKN200
     FM070600 21010KT P6SM OVC070
     FM071300 23012G20KT P6SM SCT100 BKN200=



000
FTUS43 KLOT 061731
TAFORD
TAF
KORD 061731Z 0618/0724 24011KT P6SM BKN020
     FM062100 24013KT P6SM SCT015
     FM070000 21007KT P6SM FEW015 BKN200
     FM070700 22010KT P6SM OVC080
     FM071300 23013KT P6SM SCT100 BKN200
     FM071600 24013G21KT P6SM SCT100 BKN180=



000
FTUS43 KLOT 061459 AAA
TAFORD
TAF AMD
KORD 061459Z 0615/0718 23008KT P6SM FEW025 SCT250
     FM061630 23010KT P6SM BKN025
     FM070000 21007KT P6SM BKN120
     FM070700 22010KT P6SM OVC080
     FM071500 23013KT P6SM OVC050=



000
FTUS43 KLOT 061459 AAA
TAFMDW
TAF AMD
KMDW 061459Z 0615/0712 23008KT P6SM FEW025 SCT250
     FM061645 23010KT P6SM BKN025
     FM070000 21007KT P6SM BKN120
     FM070700 22010KT P6SM OVC080=



000
FTUS43 KLOT 061459 AAA
TAFDPA
TAF AMD
KDPA 061459Z 0615/0712 23008KT 6SM BR FEW025 SCT250
     FM061600 23010KT P6SM BKN025
     FM070000 21006KT P6SM BKN120
     FM070700 22009KT P6SM OVC080=



000
FTUS43 KLOT 061459 AAA
TAFGYY
TAF AMD
KGYY 061459Z 0615/0712 21006KT P6SM FEW060 SCT250
     FM061700 23010KT P6SM BKN025
     FM070000 21006KT P6SM BKN120
     FM070800 21009KT P6SM OVC080=



000
FTUS43 KLOT 061459 AAA
TAFRFD
TAF AMD
KRFD 061459Z 0615/0712 22008KT 6SM BR OVC025
     FM061600 24009KT P6SM BKN020
     FM070000 22007KT P6SM BKN120
     FM070600 21010KT P6SM OVC070=



000
FTUS43 KLOT 061139
TAFGYY
TAF
KGYY 061139Z 0612/0712 21006KT P6SM BKN060
     FM061600 23010KT P6SM BKN040
     FM070000 21006KT P6SM BKN120
     FM070800 21009KT P6SM OVC080=



000
FTUS43 KLOT 061139
TAFRFD
TAF
KRFD 061139Z 0612/0712 21005KT P6SM SCT045
     FM061245 22008KT P6SM OVC020
     FM061900 24009KT P6SM BKN030
     FM070000 22007KT P6SM BKN120
     FM070600 21010KT P6SM OVC070=



000
FTUS43 KLOT 061139
TAFORD
TAF
KORD 061139Z 0612/0718 21006KT P6SM BKN050
     FM061600 23010KT P6SM BKN035
     FM070000 21007KT P6SM BKN120
     FM070700 22010KT P6SM OVC080
     FM071500 23013KT P6SM OVC050=



000
FTUS43 KLOT 061139
TAFDPA
TAF
KDPA 061139Z 0612/0712 21005KT 6SM BR SCT045
     FM061530 22008KT P6SM BKN030
     FM061900 24009KT P6SM BKN035
     FM070000 21006KT P6SM BKN120
     FM070700 22009KT P6SM OVC080=



000
FTUS43 KLOT 061139
TAFGYY
TAF
KGYY 061139Z 0612/0712 21006KT P6SM BKN060
     FM061600 23010KT P6SM BKN040
     FM070000 21006KT P6SM BKN120
     FM070800 21009KT P6SM OVC080=



000
FTUS43 KLOT 061139
TAFMDW
TAF
KMDW 061139Z 0612/0712 21006KT P6SM BKN060
     FM061600 23010KT P6SM BKN035
     FM070000 21007KT P6SM BKN120
     FM070700 22010KT P6SM OVC080=



000
FTUS43 KLOT 061139
TAFGYY
TAF
KGYY 061139Z 0612/0712 21006KT P6SM BKN060
     FM061600 23010KT P6SM BKN040
     FM070000 21006KT P6SM BKN120
     FM070800 21009KT P6SM OVC080=



000
FTUS43 KLOT 061139
TAFMDW
TAF
KMDW 061139Z 0612/0712 21006KT P6SM BKN060
     FM061600 23010KT P6SM BKN035
     FM070000 21007KT P6SM BKN120
     FM070700 22010KT P6SM OVC080=



000
FTUS43 KLOT 061139
TAFRFD
TAF
KRFD 061139Z 0612/0712 21005KT P6SM SCT045
     FM061245 22008KT P6SM OVC020
     FM061900 24009KT P6SM BKN030
     FM070000 22007KT P6SM BKN120
     FM070600 21010KT P6SM OVC070=



000
FTUS43 KLOT 061139
TAFDPA
TAF
KDPA 061139Z 0612/0712 21005KT 6SM BR SCT045
     FM061530 22008KT P6SM BKN030
     FM061900 24009KT P6SM BKN035
     FM070000 21006KT P6SM BKN120
     FM070700 22009KT P6SM OVC080=



000
FTUS43 KLOT 061139
TAFORD
TAF
KORD 061139Z 0612/0718 21006KT P6SM BKN050
     FM061600 23010KT P6SM BKN035
     FM070000 21007KT P6SM BKN120
     FM070700 22010KT P6SM OVC080
     FM071500 23013KT P6SM OVC050=



000
FTUS43 KLOT 060857 AAB
TAFGYY
TAF AMD
KGYY 060857Z 0609/0706 21004KT 5SM BR BKN080
     FM061000 22005KT P6SM SCT035 OVC045
     FM061500 23010KT P6SM SCT045 SCT250=



000
FTUS43 KLOT 060857 AAA
TAFMDW
TAF AMD
KMDW 060857Z 0609/0706 22004KT P6SM SCT045 OVC070
     FM061000 22005KT P6SM SCT035 OVC045
     FM061500 23010KT P6SM SCT045 SCT250=



000
FTUS43 KLOT 060857 AAA
TAFORD
TAF AMD
KORD 060857Z 0609/0712 22004KT P6SM SCT045 OVC070
     FM061000 22005KT P6SM SCT035 OVC045
     FM061500 23010KT P6SM SCT045 SCT250
     FM070600 22009KT P6SM BKN100 BKN250=



000
FTUS43 KLOT 060857 AAA
TAFRFD
TAF AMD
KRFD 060857Z 0609/0706 21004KT P6SM SCT030 OVC045
     FM061500 22008KT P6SM FEW025 BKN035
     FM061900 23010KT P6SM BKN040
     FM070400 21009KT P6SM BKN100 BKN250=



000
FTUS43 KLOT 060857 AAB
TAFGYY
TAF AMD
KGYY 060857Z 0609/0706 21004KT 5SM BR BKN080
     FM061000 22005KT P6SM SCT035 OVC045
     FM061500 23010KT P6SM SCT045 SCT250=



000
FTUS43 KLOT 060857 AAA
TAFDPA
TAF AMD
KDPA 060857Z 0609/0706 21003KT P6SM SCT045 OVC070
     FM061000 21004KT P6SM SCT035 OVC045
     FM061500 23010KT P6SM SCT045 SCT250=



000
FTUS43 KLOT 060857 AAB
TAFGYY
TAF AMD
KGYY 060857Z 0609/0706 21004KT 5SM BR BKN080
     FM061000 22005KT P6SM SCT035 OVC045
     FM061500 23010KT P6SM SCT045 SCT250=



000
FTUS43 KLOT 060857 AAA
TAFMDW
TAF AMD
KMDW 060857Z 0609/0706 22004KT P6SM SCT045 OVC070
     FM061000 22005KT P6SM SCT035 OVC045
     FM061500 23010KT P6SM SCT045 SCT250=



000
FTUS43 KLOT 060857 AAA
TAFORD
TAF AMD
KORD 060857Z 0609/0712 22004KT P6SM SCT045 OVC070
     FM061000 22005KT P6SM SCT035 OVC045
     FM061500 23010KT P6SM SCT045 SCT250
     FM070600 22009KT P6SM BKN100 BKN250=



000
FTUS43 KLOT 060857 AAA
TAFDPA
TAF AMD
KDPA 060857Z 0609/0706 21003KT P6SM SCT045 OVC070
     FM061000 21004KT P6SM SCT035 OVC045
     FM061500 23010KT P6SM SCT045 SCT250=



000
FTUS43 KLOT 060857 AAA
TAFRFD
TAF AMD
KRFD 060857Z 0609/0706 21004KT P6SM SCT030 OVC045
     FM061500 22008KT P6SM FEW025 BKN035
     FM061900 23010KT P6SM BKN040
     FM070400 21009KT P6SM BKN100 BKN250=



000
FTUS43 KLOT 060703 AAA
TAFGYY
TAF AMD
KGYY 060703Z 0607/0706 21004KT 5SM BR BKN080
     FM061000 22005KT P6SM SCT035 OVC045
     FM061500 23010KT P6SM SCT045 SCT250=



000
FTUS43 KLOT 060703 AAA
TAFGYY
TAF AMD
KGYY 060703Z 0607/0706 21004KT 5SM BR BKN080
     FM061000 22005KT P6SM SCT035 OVC045
     FM061500 23010KT P6SM SCT045 SCT250=



000
FTUS43 KLOT 060703 AAA
TAFGYY
TAF AMD
KGYY 060703Z 0607/0706 21004KT 5SM BR BKN080
     FM061000 22005KT P6SM SCT035 OVC045
     FM061500 23010KT P6SM SCT045 SCT250=



000
FTUS43 KLOT 060533
TAFDPA
TAF
KDPA 060533Z 0606/0706 21003KT P6SM BKN090
     FM060800 21003KT P6SM SCT045 OVC070
     FM061000 21004KT P6SM SCT035 OVC045
     FM061500 23010KT P6SM SCT045 SCT250=



000
FTUS43 KLOT 060533
TAFGYY
TAF
KGYY 060533Z 0606/0706 22004KT P6SM BKN100
     FM060800 22004KT P6SM SCT045 OVC070
     FM061000 22005KT P6SM SCT035 OVC045
     FM061500 23010KT P6SM SCT045 SCT250=



000
FTUS43 KLOT 060533
TAFORD
TAF
KORD 060533Z 0606/0712 23004KT P6SM BKN090
     FM060800 22004KT P6SM SCT045 OVC070
     FM061000 22005KT P6SM SCT035 OVC045
     FM061500 23010KT P6SM SCT045 SCT250
     FM070600 22009KT P6SM BKN100 BKN250=



000
FTUS43 KLOT 060533
TAFRFD
TAF
KRFD 060533Z 0606/0706 19003KT P6SM -SN SCT045 OVC070
     FM060800 21004KT P6SM SCT030 OVC045
     FM061500 23010KT P6SM SCT045 SCT250
     FM070400 21009KT P6SM BKN100 BKN250=



000
FTUS43 KLOT 060533
TAFMDW
TAF
KMDW 060533Z 0606/0706 22005KT P6SM BKN090
     FM060800 22004KT P6SM SCT045 OVC070
     FM061000 22005KT P6SM SCT035 OVC045
     FM061500 23010KT P6SM SCT045 SCT250=



000
FTUS43 KLOT 060533
TAFRFD
TAF
KRFD 060533Z 0606/0706 19003KT P6SM -SN SCT045 OVC070
     FM060800 21004KT P6SM SCT030 OVC045
     FM061500 23010KT P6SM SCT045 SCT250
     FM070400 21009KT P6SM BKN100 BKN250=



000
FTUS43 KLOT 060533
TAFORD
TAF
KORD 060533Z 0606/0712 23004KT P6SM BKN090
     FM060800 22004KT P6SM SCT045 OVC070
     FM061000 22005KT P6SM SCT035 OVC045
     FM061500 23010KT P6SM SCT045 SCT250
     FM070600 22009KT P6SM BKN100 BKN250=



000
FTUS43 KLOT 060533
TAFGYY
TAF
KGYY 060533Z 0606/0706 22004KT P6SM BKN100
     FM060800 22004KT P6SM SCT045 OVC070
     FM061000 22005KT P6SM SCT035 OVC045
     FM061500 23010KT P6SM SCT045 SCT250=



000
FTUS43 KLOT 060533
TAFMDW
TAF
KMDW 060533Z 0606/0706 22005KT P6SM BKN090
     FM060800 22004KT P6SM SCT045 OVC070
     FM061000 22005KT P6SM SCT035 OVC045
     FM061500 23010KT P6SM SCT045 SCT250=



000
FTUS43 KLOT 060533
TAFDPA
TAF
KDPA 060533Z 0606/0706 21003KT P6SM BKN090
     FM060800 21003KT P6SM SCT045 OVC070
     FM061000 21004KT P6SM SCT035 OVC045
     FM061500 23010KT P6SM SCT045 SCT250=



000
FTUS43 KLOT 060309 AAA
TAFRFD
TAF AMD
KRFD 060309Z 0603/0624 20003KT P6SM OVC080
     FM060500 19003KT P6SM -SN SCT045 OVC070
     FM060800 21004KT P6SM SCT030 OVC045
     FM061500 23010KT P6SM SCT045 SCT250=



000
FTUS43 KLOT 060309 AAA
TAFORD
TAF AMD
KORD 060309Z 0603/0706 23005KT P6SM OVC090
     FM060700 22004KT P6SM SCT045 OVC070
     FM061000 22005KT P6SM SCT035 OVC045
     FM061500 23010KT P6SM SCT045 SCT250=



000
FTUS43 KLOT 060309 AAA
TAFDPA
TAF AMD
KDPA 060309Z 0603/0624 21003KT P6SM OVC090
     FM060700 21003KT P6SM SCT045 OVC070
     FM061000 21004KT P6SM SCT035 OVC045
     FM061500 23010KT P6SM SCT045 SCT250=



000
FTUS43 KLOT 060309 AAA
TAFGYY
TAF AMD
KGYY 060309Z 0603/0624 24005KT P6SM BKN100
     FM060700 22004KT P6SM SCT045 OVC070
     FM061000 22005KT P6SM SCT035 OVC045
     FM061500 23010KT P6SM SCT045 SCT250=



000
FTUS43 KLOT 060309 AAA
TAFMDW
TAF AMD
KMDW 060309Z 0603/0624 23005KT P6SM OVC090
     FM060700 22004KT P6SM SCT045 OVC070
     FM061000 22005KT P6SM SCT035 OVC045
     FM061500 23010KT P6SM SCT045 SCT250=



000
FTUS43 KLOT 052331
TAFRFD
TAF
KRFD 052331Z 0600/0624 25005KT P6SM OVC100
     FM060500 21003KT P6SM SCT045 OVC070
     FM060800 21004KT P6SM SCT035 OVC045
     FM061500 23010KT P6SM SCT045 SCT250=



000
FTUS43 KLOT 052331
TAFMDW
TAF
KMDW 052331Z 0600/0624 27006KT P6SM BKN100
     FM060700 22004KT P6SM SCT045 OVC070
     FM061000 22005KT P6SM SCT035 OVC045
     FM061500 23010KT P6SM SCT045 SCT250=



000
FTUS43 KLOT 052331
TAFGYY
TAF
KGYY 052331Z 0600/0624 26006KT P6SM SCT035 BKN100
     FM060700 22004KT P6SM SCT045 OVC070
     FM061000 22005KT P6SM SCT035 OVC045
     FM061500 23010KT P6SM SCT045 SCT250=



000
FTUS43 KLOT 052331
TAFDPA
TAF
KDPA 052331Z 0600/0624 26006KT P6SM BKN100
     FM060700 21003KT P6SM SCT045 OVC070
     FM061000 21004KT P6SM SCT035 OVC045
     FM061500 23010KT P6SM SCT045 SCT250=



000
FTUS43 KLOT 052331
TAFORD
TAF
KORD 052331Z 0600/0706 26006KT P6SM BKN100
     FM060700 22004KT P6SM SCT045 OVC070
     FM061000 22005KT P6SM SCT035 OVC045
     FM061500 23010KT P6SM SCT045 SCT250=



000
FTUS43 KLOT 052331
TAFRFD
TAF
KRFD 052331Z 0600/0624 25005KT P6SM OVC100
     FM060500 21003KT P6SM SCT045 OVC070
     FM060800 21004KT P6SM SCT035 OVC045
     FM061500 23010KT P6SM SCT045 SCT250=



000
FTUS43 KLOT 052331
TAFORD
TAF
KORD 052331Z 0600/0706 26006KT P6SM BKN100
     FM060700 22004KT P6SM SCT045 OVC070
     FM061000 22005KT P6SM SCT035 OVC045
     FM061500 23010KT P6SM SCT045 SCT250=



000
FTUS43 KLOT 052331
TAFMDW
TAF
KMDW 052331Z 0600/0624 27006KT P6SM BKN100
     FM060700 22004KT P6SM SCT045 OVC070
     FM061000 22005KT P6SM SCT035 OVC045
     FM061500 23010KT P6SM SCT045 SCT250=



000
FTUS43 KLOT 052331
TAFGYY
TAF
KGYY 052331Z 0600/0624 26006KT P6SM SCT035 BKN100
     FM060700 22004KT P6SM SCT045 OVC070
     FM061000 22005KT P6SM SCT035 OVC045
     FM061500 23010KT P6SM SCT045 SCT250=



000
FTUS43 KLOT 052331
TAFDPA
TAF
KDPA 052331Z 0600/0624 26006KT P6SM BKN100
     FM060700 21003KT P6SM SCT045 OVC070
     FM061000 21004KT P6SM SCT035 OVC045
     FM061500 23010KT P6SM SCT045 SCT250=



000
FTUS43 KLOT 052331
TAFGYY
TAF
KGYY 052331Z 0600/0624 26006KT P6SM SCT035 BKN100
     FM060700 22004KT P6SM SCT045 OVC070
     FM061000 22005KT P6SM SCT035 OVC045
     FM061500 23010KT P6SM SCT045 SCT250=



000
FTUS43 KLOT 052057 AAA
TAFDPA
TAF AMD
KDPA 052057Z 0521/0618 27005KT P6SM FEW110 BKN250
     FM060200 24004KT P6SM SCT045 OVC090
     FM061000 22009KT P6SM OVC060
     FM061500 23010KT P6SM SCT045 BKN250=



000
FTUS43 KLOT 052057 AAA
TAFORD
TAF AMD
KORD 052057Z 0521/0624 28006KT P6SM FEW110 BKN250
     FM060200 24004KT P6SM SCT045 OVC090
     FM061000 22009KT P6SM OVC060
     FM061500 23010KT P6SM SCT045 BKN250=



000
FTUS43 KLOT 052057 AAA
TAFRFD
TAF AMD
KRFD 052057Z 0521/0618 26006KT P6SM FEW110 BKN250
     FM052300 22004KT P6SM SCT045 OVC090
     FM060700 20006KT P6SM OVC060
     FM061500 23010KT P6SM SCT035 BKN250=



000
FTUS43 KLOT 052057 AAB
TAFGYY
TAF AMD
KGYY 052057Z 0521/0618 32008KT P6SM FEW025 BKN035
     FM052200 30007KT P6SM FEW110 BKN250
     FM060200 24004KT P6SM SCT045 OVC090
     FM061000 22009KT P6SM OVC060
     FM061500 23010KT P6SM SCT045 BKN250=



000
FTUS43 KLOT 052057 AAA
TAFMDW
TAF AMD
KMDW 052057Z 0521/0618 28006KT P6SM FEW110 BKN250
     FM060200 24004KT P6SM SCT045 OVC090
     FM061000 22009KT P6SM OVC060
     FM061500 23010KT P6SM SCT045 BKN250=



000
FTUS43 KLOT 052057 AAB
TAFGYY
TAF AMD
KGYY 052057Z 0521/0618 32008KT P6SM FEW025 BKN035
     FM052200 30007KT P6SM FEW110 BKN250
     FM060200 24004KT P6SM SCT045 OVC090
     FM061000 22009KT P6SM OVC060
     FM061500 23010KT P6SM SCT045 BKN250=



000
FTUS43 KLOT 051834 AAA
TAFGYY
TAF AMD
KGYY 051834Z 0519/0618 33008KT P6SM SCT020 BKN035
      TEMPO 0519/0521 BKN020
     FM052100 31007KT P6SM SCT015 BKN250
     FM060200 24004KT P6SM SCT045 OVC090
     FM061000 22009KT P6SM OVC060
     FM061500 23010KT P6SM SCT045 BKN250=



000
FTUS43 KLOT 051834 AAA
TAFGYY
TAF AMD
KGYY 051834Z 0519/0618 33008KT P6SM SCT020 BKN035
      TEMPO 0519/0521 BKN020
     FM052100 31007KT P6SM SCT015 BKN250
     FM060200 24004KT P6SM SCT045 OVC090
     FM061000 22009KT P6SM OVC060
     FM061500 23010KT P6SM SCT045 BKN250=



000
FTUS43 KLOT 051834 AAA
TAFGYY
TAF AMD
KGYY 051834Z 0519/0618 33008KT P6SM SCT020 BKN035
      TEMPO 0519/0521 BKN020
     FM052100 31007KT P6SM SCT015 BKN250
     FM060200 24004KT P6SM SCT045 OVC090
     FM061000 22009KT P6SM OVC060
     FM061500 23010KT P6SM SCT045 BKN250=



000
FTUS43 KLOT 051731
TAFGYY
TAF
KGYY 051731Z 0518/0618 33008KT P6SM BKN012
     FM052000 31007KT P6SM SCT015 BKN250
     FM060200 24004KT P6SM SCT045 OVC090
     FM061000 22009KT P6SM OVC060
     FM061500 23010KT P6SM SCT045 BKN250=



000
FTUS43 KLOT 051731
TAFORD
TAF
KORD 051731Z 0518/0624 32007KT P6SM SCT018 BKN250
      TEMPO 0518/0520 BKN018
     FM060200 24004KT P6SM SCT045 OVC090
     FM061000 22009KT P6SM OVC060
     FM061500 23010KT P6SM SCT045 BKN250=



000
FTUS43 KLOT 051731
TAFGYY
TAF
KGYY 051731Z 0518/0618 33008KT P6SM BKN012
     FM052000 31007KT P6SM SCT015 BKN250
     FM060200 24004KT P6SM SCT045 OVC090
     FM061000 22009KT P6SM OVC060
     FM061500 23010KT P6SM SCT045 BKN250=



000
FTUS43 KLOT 051731
TAFMDW
TAF
KMDW 051731Z 0518/0618 32007KT P6SM SCT018 BKN250
      TEMPO 0518/0521 BKN018
     FM060200 24004KT P6SM SCT045 OVC090
     FM061000 22009KT P6SM OVC060
     FM061500 23010KT P6SM SCT045 BKN250=



000
FTUS43 KLOT 051731
TAFDPA
TAF
KDPA 051731Z 0518/0618 32007KT P6SM SCT013 BKN250
      TEMPO 0518/0520 BKN013
     FM060200 24004KT P6SM SCT045 OVC090
     FM061000 22009KT P6SM OVC060
     FM061500 23010KT P6SM SCT045 BKN250=



000
FTUS43 KLOT 051731
TAFRFD
TAF
KRFD 051731Z 0518/0618 29006KT P6SM SCT016 BKN250
     FM052300 22004KT P6SM SCT045 OVC090
     FM060700 20006KT P6SM OVC060
     FM061500 23010KT P6SM SCT035 BKN250=



000
FTUS43 KLOT 051731
TAFGYY
TAF
KGYY 051731Z 0518/0618 33008KT P6SM BKN012
     FM052000 31007KT P6SM SCT015 BKN250
     FM060200 24004KT P6SM SCT045 OVC090
     FM061000 22009KT P6SM OVC060
     FM061500 23010KT P6SM SCT045 BKN250=



000
FTUS43 KLOT 051731
TAFMDW
TAF
KMDW 051731Z 0518/0618 32007KT P6SM SCT018 BKN250
      TEMPO 0518/0521 BKN018
     FM060200 24004KT P6SM SCT045 OVC090
     FM061000 22009KT P6SM OVC060
     FM061500 23010KT P6SM SCT045 BKN250=



000
FTUS43 KLOT 051731
TAFDPA
TAF
KDPA 051731Z 0518/0618 32007KT P6SM SCT013 BKN250
      TEMPO 0518/0520 BKN013
     FM060200 24004KT P6SM SCT045 OVC090
     FM061000 22009KT P6SM OVC060
     FM061500 23010KT P6SM SCT045 BKN250=



000
FTUS43 KLOT 051731
TAFORD
TAF
KORD 051731Z 0518/0624 32007KT P6SM SCT018 BKN250
      TEMPO 0518/0520 BKN018
     FM060200 24004KT P6SM SCT045 OVC090
     FM061000 22009KT P6SM OVC060
     FM061500 23010KT P6SM SCT045 BKN250=



000
FTUS43 KLOT 051731
TAFRFD
TAF
KRFD 051731Z 0518/0618 29006KT P6SM SCT016 BKN250
     FM052300 22004KT P6SM SCT045 OVC090
     FM060700 20006KT P6SM OVC060
     FM061500 23010KT P6SM SCT035 BKN250=



    US Dept of Commerce
    National Oceanic and Atmospheric Administration
    National Weather Service
    1325 East West Highway
    Silver Spring, MD 20910
    Page Author: NWS Internet Services Team
Disclaimer
Information Quality
Credits
Glossary
Privacy Policy
Freedom of Information Act (FOIA)
About Us
Career Opportunities